IBE31AA EDDF-LEMD
Flight info
| Callsign | IBE31AA |
|---|---|
| Flight time | N/A |
| Altitude | 33000 |
| Route | ANEKI2L/18 ANEKI Y163 HERBI Y164 MOPAN DCT LUTIX DCT BENOT DCT NEMOS DCT NINTU DCT MEBAK DCT REPSI DCT LERGA DCT MINSO DCT NARAK DCT AGN DCT MAQAB DCT TIVLI N869 ZAR Z245 TERSA |
| Aircraft | A320/M-SDE3FGHIRWY/LB1 |
Departure
| Time | 2026-05-03 21:04 |
|---|---|
| Airport | Frankfurt Main Airport (EDDF) |
Arrival
| Time | N/A |
|---|---|
| Airport | Adolfo Suárez Madrid–Barajas Airport (LEMD) |
| Time | Latitude | Longitude | Altitude | Speed | Heading |
|---|---|---|---|---|---|
| 2026-05-03 20:24 | 50.04877 | 8.59048 | 365 ft | 0 kts | 339° |
| 2026-05-03 20:39 | 50.04879 | 8.59047 | 365 ft | 0 kts | 339° |
| 2026-05-03 20:41 | 50.04877 | 8.59048 | 365 ft | 2 kts | 339° |
| 2026-05-03 20:41 | 50.04853 | 8.59062 | 368 ft | 4 kts | 339° |
| 2026-05-03 20:41 | 50.04828 | 8.59077 | 370 ft | 4 kts | 339° |
| 2026-05-03 20:42 | 50.04803 | 8.59092 | 368 ft | 4 kts | 339° |
| 2026-05-03 20:42 | 50.04795 | 8.59096 | 371 ft | 0 kts | 339° |
| 2026-05-03 20:55 | 50.04798 | 8.59047 | 368 ft | 10 kts | 259° |
| 2026-05-03 20:55 | 50.04773 | 8.58940 | 368 ft | 11 kts | 248° |
| 2026-05-03 20:55 | 50.04756 | 8.58872 | 371 ft | 1 kts | 248° |
| 2026-05-03 20:55 | 50.04723 | 8.58740 | 369 ft | 27 kts | 248° |
| 2026-05-03 20:56 | 50.04675 | 8.58559 | 369 ft | 8 kts | 247° |
| 2026-05-03 20:56 | 50.04659 | 8.58503 | 369 ft | 9 kts | 247° |
| 2026-05-03 20:56 | 50.04613 | 8.58322 | 375 ft | 29 kts | 250° |
| 2026-05-03 20:56 | 50.04551 | 8.58057 | 366 ft | 3 kts | 251° |
| 2026-05-03 20:57 | 50.04550 | 8.58055 | 366 ft | 2 kts | 251° |
| 2026-05-03 20:57 | 50.04523 | 8.57932 | 368 ft | 18 kts | 251° |
| 2026-05-03 20:57 | 50.04483 | 8.57754 | 368 ft | 20 kts | 251° |
| 2026-05-03 20:57 | 50.04451 | 8.57625 | 366 ft | 20 kts | 238° |
| 2026-05-03 20:58 | 50.04399 | 8.57430 | 362 ft | 22 kts | 249° |
| 2026-05-03 20:58 | 50.04346 | 8.57207 | 361 ft | 23 kts | 249° |
| 2026-05-03 20:58 | 50.04286 | 8.56958 | 359 ft | 25 kts | 249° |
| 2026-05-03 20:58 | 50.04227 | 8.56710 | 357 ft | 26 kts | 250° |
| 2026-05-03 20:59 | 50.04160 | 8.56433 | 358 ft | 28 kts | 249° |
| 2026-05-03 20:59 | 50.04096 | 8.56160 | 358 ft | 29 kts | 251° |
| 2026-05-03 20:59 | 50.04027 | 8.55864 | 351 ft | 29 kts | 249° |
| 2026-05-03 20:59 | 50.03952 | 8.55563 | 357 ft | 30 kts | 248° |
| 2026-05-03 21:00 | 50.03884 | 8.55257 | 350 ft | 29 kts | 249° |
| 2026-05-03 21:00 | 50.03881 | 8.55247 | 355 ft | 29 kts | 249° |
| 2026-05-03 21:00 | 50.03835 | 8.55066 | 355 ft | 30 kts | 248° |
| 2026-05-03 21:00 | 50.03749 | 8.54720 | 354 ft | 30 kts | 249° |
| 2026-05-03 21:01 | 50.03678 | 8.54419 | 351 ft | 32 kts | 249° |
| 2026-05-03 21:01 | 50.03604 | 8.54122 | 351 ft | 31 kts | 248° |
| 2026-05-03 21:01 | 50.03528 | 8.53799 | 338 ft | 31 kts | 250° |
| 2026-05-03 21:01 | 50.03467 | 8.53528 | 334 ft | 19 kts | 246° |
| 2026-05-03 21:02 | 50.03418 | 8.53333 | 334 ft | 20 kts | 250° |
| 2026-05-03 21:02 | 50.03369 | 8.53118 | 335 ft | 22 kts | 250° |
| 2026-05-03 21:02 | 50.03320 | 8.52902 | 332 ft | 20 kts | 250° |
| 2026-05-03 21:02 | 50.03276 | 8.52719 | 330 ft | 13 kts | 247° |
| 2026-05-03 21:03 | 50.03219 | 8.52614 | 334 ft | 13 kts | 223° |
| 2026-05-03 21:03 | 50.03165 | 8.52593 | 335 ft | 0 kts | 181° |
| 2026-05-03 21:03 | 50.03163 | 8.52593 | 335 ft | 0 kts | 180° |
| 2026-05-03 21:03 | 50.02996 | 8.52597 | 335 ft | 59 kts | 179° |
| 2026-05-03 21:04 | 50.02368 | 8.52611 | 334 ft | 119 kts | 180° |
| 2026-05-03 21:04 | 50.01374 | 8.52612 | 333 ft | 165 kts | 179° |
| 2026-05-03 21:04 | 50.00197 | 8.52608 | 847 ft | 168 kts | 181° |
| 2026-05-03 21:04 | 49.99016 | 8.52668 | 1570 ft | 169 kts | 181° |
| 2026-05-03 21:05 | 49.97788 | 8.52759 | 2008 ft | 187 kts | 182° |
| 2026-05-03 21:05 | 49.96409 | 8.52859 | 2349 ft | 209 kts | 182° |
| 2026-05-03 21:05 | 49.94902 | 8.52964 | 2848 ft | 224 kts | 182° |
| 2026-05-03 21:05 | 49.93374 | 8.53078 | 3613 ft | 227 kts | 182° |
| 2026-05-03 21:06 | 49.91700 | 8.53206 | 3910 ft | 229 kts | 182° |
| 2026-05-03 21:06 | 49.90118 | 8.53326 | 3977 ft | 226 kts | 182° |
| 2026-05-03 21:06 | 49.89063 | 8.53403 | 3982 ft | 225 kts | 183° |
| 2026-05-03 21:06 | 49.86975 | 8.53550 | 3981 ft | 224 kts | 183° |
| 2026-05-03 21:07 | 49.85387 | 8.53659 | 3985 ft | 224 kts | 183° |
| 2026-05-03 21:07 | 49.83847 | 8.53764 | 3985 ft | 224 kts | 183° |
| 2026-05-03 21:07 | 49.82279 | 8.53870 | 3989 ft | 225 kts | 183° |
| 2026-05-03 21:07 | 49.81096 | 8.53950 | 3989 ft | 224 kts | 183° |
| 2026-05-03 21:08 | 49.79643 | 8.54050 | 3990 ft | 224 kts | 183° |
| 2026-05-03 21:08 | 49.78049 | 8.54129 | 3990 ft | 222 kts | 188° |
| 2026-05-03 21:08 | 49.76460 | 8.53835 | 3998 ft | 244 kts | 191° |
| 2026-05-03 21:08 | 49.74663 | 8.53563 | 3996 ft | 251 kts | 189° |
| 2026-05-03 21:09 | 49.72936 | 8.53354 | 3998 ft | 254 kts | 188° |
| 2026-05-03 21:09 | 49.71175 | 8.53152 | 3999 ft | 253 kts | 188° |
| 2026-05-03 21:09 | 49.69424 | 8.52947 | 4000 ft | 252 kts | 189° |
| 2026-05-03 21:09 | 49.67656 | 8.52733 | 4001 ft | 252 kts | 189° |
| 2026-05-03 21:10 | 49.65817 | 8.52502 | 4102 ft | 257 kts | 189° |
| 2026-05-03 21:10 | 49.64064 | 8.52278 | 5050 ft | 254 kts | 189° |
| 2026-05-03 21:10 | 49.62316 | 8.52056 | 6092 ft | 252 kts | 188° |
| 2026-05-03 21:10 | 49.60573 | 8.51829 | 7013 ft | 252 kts | 188° |
| 2026-05-03 21:11 | 49.58824 | 8.51599 | 7882 ft | 254 kts | 188° |
| 2026-05-03 21:11 | 49.57053 | 8.51363 | 8755 ft | 255 kts | 188° |
| 2026-05-03 21:11 | 49.55275 | 8.51126 | 9620 ft | 257 kts | 188° |
| 2026-05-03 21:11 | 49.53490 | 8.50888 | 10296 ft | 266 kts | 188° |
| 2026-05-03 21:12 | 49.51504 | 8.50618 | 10546 ft | 290 kts | 188° |
| 2026-05-03 21:12 | 49.49306 | 8.50322 | 10800 ft | 312 kts | 187° |
| 2026-05-03 21:12 | 49.46927 | 8.50010 | 11364 ft | 322 kts | 187° |
| 2026-05-03 21:12 | 49.45190 | 8.49786 | 11869 ft | 327 kts | 187° |
| 2026-05-03 21:13 | 49.42415 | 8.49426 | 12625 ft | 334 kts | 187° |
| 2026-05-03 21:13 | 49.40080 | 8.49123 | 13272 ft | 339 kts | 187° |
| 2026-05-03 21:13 | 49.37684 | 8.48813 | 13891 ft | 344 kts | 187° |
| 2026-05-03 21:13 | 49.35285 | 8.48502 | 14462 ft | 348 kts | 187° |
| 2026-05-03 21:14 | 49.32856 | 8.48186 | 15050 ft | 352 kts | 187° |
| 2026-05-03 21:14 | 49.30400 | 8.47866 | 15644 ft | 356 kts | 187° |
| 2026-05-03 21:14 | 49.28792 | 8.47657 | 16022 ft | 358 kts | 187° |
| 2026-05-03 21:14 | 49.28466 | 8.47615 | 16099 ft | 359 kts | 187° |
| 2026-05-03 21:15 | 49.25987 | 8.47294 | 16669 ft | 362 kts | 187° |
| 2026-05-03 21:15 | 49.22650 | 8.46858 | 17424 ft | 367 kts | 187° |
| 2026-05-03 21:15 | 49.20756 | 8.46612 | 17826 ft | 370 kts | 187° |
| 2026-05-03 21:15 | 49.18484 | 8.46319 | 18275 ft | 374 kts | 187° |
| 2026-05-03 21:16 | 49.15748 | 8.45965 | 18768 ft | 378 kts | 187° |
| 2026-05-03 21:16 | 49.13176 | 8.45632 | 19262 ft | 380 kts | 187° |
| 2026-05-03 21:16 | 49.10580 | 8.45297 | 19758 ft | 382 kts | 187° |
| 2026-05-03 21:16 | 49.07801 | 8.44938 | 20308 ft | 384 kts | 187° |
| 2026-05-03 21:17 | 49.05113 | 8.44340 | 20751 ft | 384 kts | 194° |
| 2026-05-03 21:17 | 49.03414 | 8.43757 | 20897 ft | 383 kts | 195° |
| 2026-05-03 21:17 | 48.99976 | 8.42554 | 21201 ft | 384 kts | 195° |
| 2026-05-03 21:17 | 48.97343 | 8.41625 | 21420 ft | 385 kts | 195° |
| 2026-05-03 21:18 | 48.94699 | 8.40693 | 21668 ft | 386 kts | 195° |
| 2026-05-03 21:18 | 48.92208 | 8.39819 | 21887 ft | 387 kts | 195° |
| 2026-05-03 21:18 | 48.91638 | 8.39619 | 21944 ft | 387 kts | 195° |